sensor_id;sensor_type;location;lat;lon;timestamp;pressure;altitude;pressure_sealevel;temperature;humidity
77110;BME280;66062;52.464;16.922;2023-03-01T00:02:06;102126.94;;;-2.68;87.27
77110;BME280;66062;52.464;16.922;2023-03-01T00:04:32;102119.22;;;-2.75;88.73
77110;BME280;66062;52.464;16.922;2023-03-01T00:06:57;102120.16;;;-2.81;89.56
77110;BME280;66062;52.464;16.922;2023-03-01T00:09:23;102128.94;;;-2.89;90.39
77110;BME280;66062;52.464;16.922;2023-03-01T00:11:48;102120.34;;;-2.99;90.29
77110;BME280;66062;52.464;16.922;2023-03-01T00:14:14;102121.34;;;-3.08;90.69
77110;BME280;66062;52.464;16.922;2023-03-01T00:16:44;102111.81;;;-3.12;90.60
77110;BME280;66062;52.464;16.922;2023-03-01T00:19:15;102120.28;;;-2.90;89.93
77110;BME280;66062;52.464;16.922;2023-03-01T00:21:41;102117.72;;;-2.96;89.55
77110;BME280;66062;52.464;16.922;2023-03-01T00:24:07;102116.09;;;-3.06;89.52
77110;BME280;66062;52.464;16.922;2023-03-01T00:26:33;102109.22;;;-3.13;90.15
77110;BME280;66062;52.464;16.922;2023-03-01T00:28:59;102103.94;;;-3.09;90.30
77110;BME280;66062;52.464;16.922;2023-03-01T00:31:27;102102.19;;;-3.07;90.26
77110;BME280;66062;52.464;16.922;2023-03-01T00:34:02;102111.75;;;-3.06;89.20
77110;BME280;66062;52.464;16.922;2023-03-01T00:36:30;102103.03;;;-3.06;89.44
77110;BME280;66062;52.464;16.922;2023-03-01T00:38:56;102109.03;;;-2.98;89.30
77110;BME280;66062;52.464;16.922;2023-03-01T00:41:22;102108.16;;;-2.97;89.70
77110;BME280;66062;52.464;16.922;2023-03-01T00:43:49;102098.38;;;-2.80;89.21
77110;BME280;66062;52.464;16.922;2023-03-01T00:46:17;102101.00;;;-2.83;88.65
77110;BME280;66062;52.464;16.922;2023-03-01T00:48:43;102091.38;;;-2.79;88.74
77110;BME280;66062;52.464;16.922;2023-03-01T00:51:14;102096.78;;;-2.90;88.84
77110;BME280;66062;52.464;16.922;2023-03-01T00:53:40;102086.47;;;-3.04;89.33
77110;BME280;66062;52.464;16.922;2023-03-01T00:56:07;102088.38;;;-3.16;89.79
77110;BME280;66062;52.464;16.922;2023-03-01T00:58:33;102083.97;;;-3.14;90.65
77110;BME280;66062;52.464;16.922;2023-03-01T01:00:59;102089.13;;;-3.08;91.05
77110;BME280;66062;52.464;16.922;2023-03-01T01:03:25;102084.72;;;-3.03;90.40
77110;BME280;66062;52.464;16.922;2023-03-01T01:05:52;102081.19;;;-2.99;89.85
77110;BME280;66062;52.464;16.922;2023-03-01T01:08:19;102076.00;;;-3.02;89.58
77110;BME280;66062;52.464;16.922;2023-03-01T01:10:46;102070.75;;;-2.99;90.09
77110;BME280;66062;52.464;16.922;2023-03-01T01:13:11;102079.50;;;-3.03;89.58
77110;BME280;66062;52.464;16.922;2023-03-01T01:15:37;102081.28;;;-3.05;89.60
77110;BME280;66062;52.464;16.922;2023-03-01T01:18:02;102088.22;;;-3.04;89.77
77110;BME280;66062;52.464;16.922;2023-03-01T01:20:28;102076.88;;;-3.03;88.87
77110;BME280;66062;52.464;16.922;2023-03-01T01:22:53;102083.09;;;-3.12;89.80
77110;BME280;66062;52.464;16.922;2023-03-01T01:25:19;102076.22;;;-3.20;89.54
77110;BME280;66062;52.464;16.922;2023-03-01T01:27:44;102078.06;;;-3.30;90.13
77110;BME280;66062;52.464;16.922;2023-03-01T01:30:10;102076.50;;;-3.46;90.69
77110;BME280;66062;52.464;16.922;2023-03-01T01:32:36;102079.22;;;-3.57;91.10
77110;BME280;66062;52.464;16.922;2023-03-01T01:35:02;102073.19;;;-3.63;91.48
77110;BME280;66062;52.464;16.922;2023-03-01T01:37:27;102078.41;;;-3.63;92.09
77110;BME280;66062;52.464;16.922;2023-03-01T01:39:59;102074.94;;;-3.64;92.30
77110;BME280;66062;52.464;16.922;2023-03-01T01:42:25;102073.16;;;-3.60;92.83
77110;BME280;66062;52.464;16.922;2023-03-01T01:47:51;102070.56;;;-3.63;93.33
77110;BME280;66062;52.464;16.922;2023-03-01T01:50:18;102066.28;;;-3.66;93.11
77110;BME280;66062;52.464;16.922;2023-03-01T01:52:45;102064.50;;;-3.65;92.63
77110;BME280;66062;52.464;16.922;2023-03-01T01:55:14;102060.16;;;-3.65;93.40
77110;BME280;66062;52.464;16.922;2023-03-01T01:57:50;102057.56;;;-3.66;93.18
77110;BME280;66062;52.464;16.922;2023-03-01T02:00:23;102057.50;;;-3.60;92.85
77110;BME280;66062;52.464;16.922;2023-03-01T02:02:52;102050.53;;;-3.57;92.27
77110;BME280;66062;52.464;16.922;2023-03-01T02:08:27;102046.06;;;-3.46;90.57
77110;BME280;66062;52.464;16.922;2023-03-01T02:10:54;102033.91;;;-3.47;90.38
77110;BME280;66062;52.464;16.922;2023-03-01T02:13:21;102025.13;;;-3.41;89.92
77110;BME280;66062;52.464;16.922;2023-03-01T02:15:46;102016.41;;;-3.38;90.26
77110;BME280;66062;52.464;16.922;2023-03-01T02:18:14;102013.59;;;-3.20;89.00
77110;BME280;66062;52.464;16.922;2023-03-01T02:21:05;102007.44;;;-3.16;88.58
77110;BME280;66062;52.464;16.922;2023-03-01T02:23:33;102007.38;;;-3.10;87.88
77110;BME280;66062;52.464;16.922;2023-03-01T02:26:10;102009.03;;;-3.06;87.28
77110;BME280;66062;52.464;16.922;2023-03-01T02:28:40;102006.50;;;-3.11;87.95
77110;BME280;66062;52.464;16.922;2023-03-01T02:31:09;102002.22;;;-3.16;87.96
77110;BME280;66062;52.464;16.922;2023-03-01T02:33:54;102005.59;;;-3.08;88.03
77110;BME280;66062;52.464;16.922;2023-03-01T02:36:24;102005.59;;;-3.08;87.31
77110;BME280;66062;52.464;16.922;2023-03-01T02:38:53;101995.13;;;-3.07;87.72
77110;BME280;66062;52.464;16.922;2023-03-01T02:41:20;102003.03;;;-3.13;87.67
77110;BME280;66062;52.464;16.922;2023-03-01T02:43:46;102003.81;;;-3.06;87.46
77110;BME280;66062;52.464;16.922;2023-03-01T02:46:20;102002.09;;;-3.07;86.86
77110;BME280;66062;52.464;16.922;2023-03-01T02:48:54;101994.34;;;-3.15;87.52
77110;BME280;66062;52.464;16.922;2023-03-01T02:52:00;101995.31;;;-3.20;87.75
77110;BME280;66062;52.464;16.922;2023-03-01T02:57:06;101998.09;;;-3.35;88.35
77110;BME280;66062;52.464;16.922;2023-03-01T02:59:35;101996.25;;;-3.27;88.42
77110;BME280;66062;52.464;16.922;2023-03-01T03:02:05;101992.66;;;-3.17;88.08
77110;BME280;66062;52.464;16.922;2023-03-01T03:04:30;101995.25;;;-3.16;88.00
77110;BME280;66062;52.464;16.922;2023-03-01T03:06:57;101993.50;;;-3.15;87.32
77110;BME280;66062;52.464;16.922;2023-03-01T03:09:22;101996.88;;;-3.09;87.35
77110;BME280;66062;52.464;16.922;2023-03-01T03:11:47;102001.38;;;-3.20;87.72
77110;BME280;66062;52.464;16.922;2023-03-01T03:14:15;102002.34;;;-3.25;88.13
77110;BME280;66062;52.464;16.922;2023-03-01T03:16:46;102000.53;;;-3.20;87.82
77110;BME280;66062;52.464;16.922;2023-03-01T03:19:13;101990.22;;;-3.31;88.29
77110;BME280;66062;52.464;16.922;2023-03-01T03:21:38;101988.56;;;-3.38;88.86
77110;BME280;66062;52.464;16.922;2023-03-01T03:24:04;101984.25;;;-3.40;89.06
77110;BME280;66062;52.464;16.922;2023-03-01T03:26:30;101981.63;;;-3.40;89.42
77110;BME280;66062;52.464;16.922;2023-03-01T03:28:56;101978.09;;;-3.36;89.31
77110;BME280;66062;52.464;16.922;2023-03-01T03:31:22;101976.31;;;-3.34;89.03
77110;BME280;66062;52.464;16.922;2023-03-01T03:33:47;101982.47;;;-3.37;89.03
77110;BME280;66062;52.464;16.922;2023-03-01T03:36:17;101986.81;;;-3.37;89.24
77110;BME280;66062;52.464;16.922;2023-03-01T03:38:44;101994.69;;;-3.43;89.89
77110;BME280;66062;52.464;16.922;2023-03-01T03:41:11;101990.53;;;-3.60;90.13
77110;BME280;66062;52.464;16.922;2023-03-01T03:43:38;101987.22;;;-3.75;90.85
77110;BME280;66062;52.464;16.922;2023-03-01T03:46:04;101985.56;;;-3.81;91.95
77110;BME280;66062;52.464;16.922;2023-03-01T03:48:33;101980.47;;;-3.93;92.29
77110;BME280;66062;52.464;16.922;2023-03-01T03:50:58;101984.03;;;-4.06;93.27
77110;BME280;66062;52.464;16.922;2023-03-01T03:53:25;101982.38;;;-4.12;94.00
77110;BME280;66062;52.464;16.922;2023-03-01T03:55:52;101980.66;;;-4.13;94.75
77110;BME280;66062;52.464;16.922;2023-03-01T03:58:19;101978.91;;;-4.12;95.15
77110;BME280;66062;52.464;16.922;2023-03-01T04:00:47;101973.63;;;-4.05;95.76
77110;BME280;66062;52.464;16.922;2023-03-01T04:03:14;101975.31;;;-4.01;94.48
77110;BME280;66062;52.464;16.922;2023-03-01T04:05:40;101972.69;;;-3.98;94.51
77110;BME280;66062;52.464;16.922;2023-03-01T04:08:06;101967.44;;;-3.95;94.26
77110;BME280;66062;52.464;16.922;2023-03-01T04:10:41;101980.34;;;-3.81;93.24
77110;BME280;66062;52.464;16.922;2023-03-01T04:13:11;101974.88;;;-3.57;92.03
77110;BME280;66062;52.464;16.922;2023-03-01T04:15:37;101973.00;;;-3.46;90.96
77110;BME280;66062;52.464;16.922;2023-03-01T04:18:03;101980.84;;;-3.46;90.20
77110;BME280;66062;52.464;16.922;2023-03-01T04:20:30;101974.81;;;-3.52;90.35
77110;BME280;66062;52.464;16.922;2023-03-01T04:23:04;101978.34;;;-3.59;91.24
77110;BME280;66062;52.464;16.922;2023-03-01T04:28:08;101976.78;;;-3.74;92.01
77110;BME280;66062;52.464;16.922;2023-03-01T04:30:35;101975.97;;;-3.77;92.69
77110;BME280;66062;52.464;16.922;2023-03-01T04:33:06;101972.38;;;-3.66;92.41
77110;BME280;66062;52.464;16.922;2023-03-01T04:35:32;101982.81;;;-3.67;91.88
77110;BME280;66062;52.464;16.922;2023-03-01T04:37:59;101980.25;;;-3.72;92.73
77110;BME280;66062;52.464;16.922;2023-03-01T04:40:27;101981.22;;;-3.82;93.32
77110;BME280;66062;52.464;16.922;2023-03-01T04:42:53;101976.06;;;-3.90;93.54
77110;BME280;66062;52.464;16.922;2023-03-01T04:45:19;101980.47;;;-3.93;94.30
77110;BME280;66062;52.464;16.922;2023-03-01T04:47:46;101981.34;;;-3.94;94.88
77110;BME280;66062;52.464;16.922;2023-03-01T04:50:16;101977.91;;;-3.98;95.44
77110;BME280;66062;52.464;16.922;2023-03-01T04:52:42;101977.03;;;-4.00;95.88
77110;BME280;66062;52.464;16.922;2023-03-01T04:55:09;101967.53;;;-4.04;95.65
77110;BME280;66062;52.464;16.922;2023-03-01T04:57:35;101971.81;;;-4.00;95.70
77110;BME280;66062;52.464;16.922;2023-03-01T05:00:00;101962.28;;;-4.01;95.93
77110;BME280;66062;52.464;16.922;2023-03-01T05:02:26;101964.84;;;-3.96;95.32
77110;BME280;66062;52.464;16.922;2023-03-01T05:04:51;101968.25;;;-3.86;95.23
77110;BME280;66062;52.464;16.922;2023-03-01T05:07:16;101967.38;;;-3.89;94.27
77110;BME280;66062;52.464;16.922;2023-03-01T05:09:47;101973.47;;;-3.91;94.62
77110;BME280;66062;52.464;16.922;2023-03-01T05:12:14;101976.94;;;-3.86;94.64
77110;BME280;66062;52.464;16.922;2023-03-01T05:14:40;101974.19;;;-3.75;94.06
77110;BME280;66062;52.464;16.922;2023-03-01T05:17:06;101971.56;;;-3.74;92.65
77110;BME280;66062;52.464;16.922;2023-03-01T05:19:31;101976.78;;;-3.74;92.78
77110;BME280;66062;52.464;16.922;2023-03-01T05:21:58;101971.63;;;-3.80;93.16
77110;BME280;66062;52.464;16.922;2023-03-01T05:24:32;101972.53;;;-3.82;93.83
77110;BME280;66062;52.464;16.922;2023-03-01T05:26:58;101976.81;;;-3.77;93.56
77110;BME280;66062;52.464;16.922;2023-03-01T05:29:25;101987.28;;;-3.80;93.15
77110;BME280;66062;52.464;16.922;2023-03-01T05:31:56;101973.47;;;-3.88;93.36
77110;BME280;66062;52.464;16.922;2023-03-01T05:34:28;101973.47;;;-3.90;93.30
77110;BME280;66062;52.464;16.922;2023-03-01T05:36:54;101977.81;;;-3.87;94.27
77110;BME280;66062;52.464;16.922;2023-03-01T05:39:24;101976.16;;;-3.99;94.89
77110;BME280;66062;52.464;16.922;2023-03-01T05:41:59;101975.31;;;-4.01;95.55
77110;BME280;66062;52.464;16.922;2023-03-01T05:44:25;101981.34;;;-3.96;96.30
77110;BME280;66062;52.464;16.922;2023-03-01T05:46:51;101977.03;;;-3.98;95.39
77110;BME280;66062;52.464;16.922;2023-03-01T05:49:16;101974.44;;;-4.00;96.13
77110;BME280;66062;52.464;16.922;2023-03-01T05:51:46;101974.38;;;-3.95;94.97
77110;BME280;66062;52.464;16.922;2023-03-01T05:54:12;101976.06;;;-3.86;95.26
77110;BME280;66062;52.464;16.922;2023-03-01T05:56:38;101973.88;;;-3.47;93.17
77110;BME280;66062;52.464;16.922;2023-03-01T05:59:04;101972.81;;;-3.30;91.08
77110;BME280;66062;52.464;16.922;2023-03-01T06:01:33;101963.78;;;-3.05;88.72
77110;BME280;66062;52.464;16.922;2023-03-01T06:03:58;101961.03;;;-2.96;87.45
77110;BME280;66062;52.464;16.922;2023-03-01T06:06:24;101962.56;;;-2.80;86.86
77110;BME280;66062;52.464;16.922;2023-03-01T06:08:51;101953.00;;;-2.84;86.65
77110;BME280;66062;52.464;16.922;2023-03-01T06:11:16;101954.81;;;-2.86;86.32
77110;BME280;66062;52.464;16.922;2023-03-01T06:13:45;101958.94;;;-2.71;86.51
77110;BME280;66062;52.464;16.922;2023-03-01T06:16:12;101955.28;;;-2.60;85.54
77110;BME280;66062;52.464;16.922;2023-03-01T06:18:37;101957.84;;;-2.58;85.48
77110;BME280;66062;52.464;16.922;2023-03-01T06:21:04;101953.13;;;-2.35;84.46
77110;BME280;66062;52.464;16.922;2023-03-01T06:23:29;101953.75;;;-2.21;83.77
77110;BME280;66062;52.464;16.922;2023-03-01T06:25:55;101948.25;;;-2.04;82.97
77110;BME280;66062;52.464;16.922;2023-03-01T06:28:20;101952.25;;;-1.86;81.83
77110;BME280;66062;52.464;16.922;2023-03-01T06:30:46;101950.09;;;-1.64;80.95
77110;BME280;66062;52.464;16.922;2023-03-01T06:33:11;101952.75;;;-1.67;80.75
77110;BME280;66062;52.464;16.922;2023-03-01T06:35:37;101954.91;;;-1.43;80.26
77110;BME280;66062;52.464;16.922;2023-03-01T06:38:04;101956.78;;;-1.07;77.92
77110;BME280;66062;52.464;16.922;2023-03-01T06:40:30;101945.69;;;-1.19;77.13
77110;BME280;66062;52.464;16.922;2023-03-01T06:42:56;101960.53;;;-1.20;77.76
77110;BME280;66062;52.464;16.922;2023-03-01T06:45:22;101953.50;;;-1.18;77.84
77110;BME280;66062;52.464;16.922;2023-03-01T06:47:48;101959.63;;;-1.19;77.43
77110;BME280;66062;52.464;16.922;2023-03-01T06:50:15;101946.53;;;-1.17;77.99
77110;BME280;66062;52.464;16.922;2023-03-01T06:52:40;101959.63;;;-1.17;77.09
77110;BME280;66062;52.464;16.922;2023-03-01T06:55:06;101954.16;;;-1.48;79.19
77110;BME280;66062;52.464;16.922;2023-03-01T06:57:32;101957.91;;;-1.20;79.29
77110;BME280;66062;52.464;16.922;2023-03-01T06:59:57;101942.63;;;-1.40;79.47
77110;BME280;66062;52.464;16.922;2023-03-01T07:02:23;101941.56;;;-1.31;79.41
77110;BME280;66062;52.464;16.922;2023-03-01T07:04:49;101947.63;;;-1.29;79.81
77110;BME280;66062;52.464;16.922;2023-03-01T07:07:14;101951.78;;;-1.19;79.25
77110;BME280;66062;52.464;16.922;2023-03-01T07:09:40;101953.97;;;-1.39;78.96
77110;BME280;66062;52.464;16.922;2023-03-01T07:12:05;101959.75;;;-1.23;79.47
77110;BME280;66062;52.464;16.922;2023-03-01T07:14:31;101962.16;;;-1.14;78.90
77110;BME280;66062;52.464;16.922;2023-03-01T07:16:57;101958.28;;;-0.97;78.63
77110;BME280;66062;52.464;16.922;2023-03-01T07:19:22;101964.81;;;-0.40;76.25
77110;BME280;66062;52.464;16.922;2023-03-01T07:21:48;101969.59;;;-0.56;76.69
77110;BME280;66062;52.464;16.922;2023-03-01T07:24:13;101965.47;;;-0.66;77.14
77110;BME280;66062;52.464;16.922;2023-03-01T07:26:38;101966.22;;;-0.26;75.97
77110;BME280;66062;52.464;16.922;2023-03-01T07:29:05;101962.94;;;0.63;72.39
77110;BME280;66062;52.464;16.922;2023-03-01T07:31:32;101953.44;;;1.72;68.87
77110;BME280;66062;52.464;16.922;2023-03-01T07:33:57;101949.00;;;2.95;65.53
77110;BME280;66062;52.464;16.922;2023-03-01T07:36:23;101943.91;;;4.58;57.11
77110;BME280;66062;52.464;16.922;2023-03-01T07:38:49;101940.22;;;6.91;49.15
77110;BME280;66062;52.464;16.922;2023-03-01T07:41:15;101934.81;;;8.73;43.78
77110;BME280;66062;52.464;16.922;2023-03-01T07:43:40;101936.72;;;8.71;42.97
77110;BME280;66062;52.464;16.922;2023-03-01T07:46:06;101936.97;;;9.50;40.45
77110;BME280;66062;52.464;16.922;2023-03-01T07:48:32;101940.28;;;10.70;37.48
77110;BME280;66062;52.464;16.922;2023-03-01T07:51:02;101936.44;;;11.83;34.56
77110;BME280;66062;52.464;16.922;2023-03-01T07:53:28;101938.84;;;11.02;35.11
77110;BME280;66062;52.464;16.922;2023-03-01T07:56:07;101936.91;;;13.14;32.29
77110;BME280;66062;52.464;16.922;2023-03-01T07:58:37;101938.91;;;12.32;34.12
77110;BME280;66062;52.464;16.922;2023-03-01T08:01:04;101932.00;;;13.94;31.30
77110;BME280;66062;52.464;16.922;2023-03-01T08:03:30;101922.84;;;14.59;30.60
77110;BME280;66062;52.464;16.922;2023-03-01T08:05:59;101917.88;;;14.84;29.17
77110;BME280;66062;52.464;16.922;2023-03-01T08:08:24;101920.03;;;16.26;27.09
77110;BME280;66062;52.464;16.922;2023-03-01T08:10:50;101925.19;;;15.62;27.16
77110;BME280;66062;52.464;16.922;2023-03-01T08:13:16;101920.78;;;15.80;26.46
77110;BME280;66062;52.464;16.922;2023-03-01T08:15:41;101919.53;;;16.04;27.12
77110;BME280;66062;52.464;16.922;2023-03-01T08:18:06;101909.53;;;16.89;25.26
77110;BME280;66062;52.464;16.922;2023-03-01T08:20:32;101905.34;;;17.04;25.41
77110;BME280;66062;52.464;16.922;2023-03-01T08:22:57;101911.03;;;17.01;25.38
77110;BME280;66062;52.464;16.922;2023-03-01T08:25:23;101903.16;;;16.44;25.89
77110;BME280;66062;52.464;16.922;2023-03-01T08:27:48;101901.69;;;15.83;26.35
77110;BME280;66062;52.464;16.922;2023-03-01T08:30:14;101903.94;;;15.88;25.97
77110;BME280;66062;52.464;16.922;2023-03-01T08:32:40;101904.59;;;16.29;24.88
77110;BME280;66062;52.464;16.922;2023-03-01T08:35:05;101905.81;;;16.63;25.16
77110;BME280;66062;52.464;16.922;2023-03-01T08:37:31;101904.72;;;15.40;26.92
77110;BME280;66062;52.464;16.922;2023-03-01T08:39:59;101896.00;;;15.96;26.21
77110;BME280;66062;52.464;16.922;2023-03-01T08:42:24;101883.59;;;16.79;24.19
77110;BME280;66062;52.464;16.922;2023-03-01T08:44:49;101890.13;;;16.30;25.57
77110;BME280;66062;52.464;16.922;2023-03-01T08:47:15;101890.75;;;16.70;24.83
77110;BME280;66062;52.464;16.922;2023-03-01T08:49:40;101894.59;;;15.54;26.73
77110;BME280;66062;52.464;16.922;2023-03-01T08:52:05;101888.28;;;16.20;25.57
77110;BME280;66062;52.464;16.922;2023-03-01T08:54:31;101892.72;;;16.02;26.30
77110;BME280;66062;52.464;16.922;2023-03-01T08:56:56;101895.56;;;15.91;25.94
77110;BME280;66062;52.464;16.922;2023-03-01T08:59:25;101892.59;;;15.65;26.40
77110;BME280;66062;52.464;16.922;2023-03-01T09:01:50;101886.09;;;15.68;26.78
77110;BME280;66062;52.464;16.922;2023-03-01T09:04:16;101888.56;;;15.21;27.45
77110;BME280;66062;52.464;16.922;2023-03-01T09:06:41;101885.53;;;15.83;26.80
77110;BME280;66062;52.464;16.922;2023-03-01T09:09:13;101889.00;;;16.22;26.73
77110;BME280;66062;52.464;16.922;2023-03-01T09:11:40;101882.53;;;15.96;26.35
77110;BME280;66062;52.464;16.922;2023-03-01T09:14:05;101876.78;;;16.38;26.08
77110;BME280;66062;52.464;16.922;2023-03-01T09:16:31;101872.00;;;16.12;27.62
77110;BME280;66062;52.464;16.922;2023-03-01T09:19:01;101863.56;;;16.81;26.61
77110;BME280;66062;52.464;16.922;2023-03-01T09:21:26;101871.38;;;16.84;25.72
77110;BME280;66062;52.464;16.922;2023-03-01T09:23:52;101881.16;;;16.39;26.18
77110;BME280;66062;52.464;16.922;2023-03-01T09:26:20;101879.41;;;16.57;25.59
77110;BME280;66062;52.464;16.922;2023-03-01T09:28:48;101890.81;;;16.32;26.36
77110;BME280;66062;52.464;16.922;2023-03-01T09:31:15;101882.09;;;16.01;27.13
77110;BME280;66062;52.464;16.922;2023-03-01T09:33:42;101876.56;;;17.58;25.27
77110;BME280;66062;52.464;16.922;2023-03-01T09:36:11;101879.06;;;17.06;25.29
77110;BME280;66062;52.464;16.922;2023-03-01T09:38:38;101878.59;;;17.56;24.79
77110;BME280;66062;52.464;16.922;2023-03-01T09:41:24;101873.97;;;17.03;25.67
77110;BME280;66062;52.464;16.922;2023-03-01T09:43:55;101876.50;;;17.05;25.35
77110;BME280;66062;52.464;16.922;2023-03-01T09:46:24;101864.47;;;17.80;24.64
77110;BME280;66062;52.464;16.922;2023-03-01T09:48:54;101879.34;;;14.65;29.12
77110;BME280;66062;52.464;16.922;2023-03-01T09:51:30;101869.81;;;16.45;27.18
77110;BME280;66062;52.464;16.922;2023-03-01T09:53:56;101880.38;;;15.32;26.71
77110;BME280;66062;52.464;16.922;2023-03-01T09:59:21;101873.31;;;14.00;29.38
77110;BME280;66062;52.464;16.922;2023-03-01T10:01:53;101872.34;;;15.52;28.64
77110;BME280;66062;52.464;16.922;2023-03-01T10:09:39;101872.44;;;17.81;24.99
77110;BME280;66062;52.464;16.922;2023-03-01T10:12:12;101864.41;;;18.15;24.60
77110;BME280;66062;52.464;16.922;2023-03-01T10:14:55;101861.06;;;18.21;24.53
77110;BME280;66062;52.464;16.922;2023-03-01T10:17:24;101858.53;;;18.79;23.93
77110;BME280;66062;52.464;16.922;2023-03-01T10:19:52;101859.78;;;19.68;23.05
77110;BME280;66062;52.464;16.922;2023-03-01T10:22:28;101866.09;;;18.68;23.88
77110;BME280;66062;52.464;16.922;2023-03-01T10:24:57;101864.00;;;18.88;23.87
77110;BME280;66062;52.464;16.922;2023-03-01T10:29:50;101865.25;;;17.72;26.08
77110;BME280;66062;52.464;16.922;2023-03-01T10:32:18;101859.09;;;17.62;26.01
77110;BME280;66062;52.464;16.922;2023-03-01T10:34:43;101859.19;;;16.80;27.17
77110;BME280;66062;52.464;16.922;2023-03-01T10:37:15;101851.72;;;17.19;26.75
77110;BME280;66062;52.464;16.922;2023-03-01T10:40:04;101845.66;;;16.53;28.29
77110;BME280;66062;52.464;16.922;2023-03-01T10:42:47;101845.84;;;16.79;27.20
77110;BME280;66062;52.464;16.922;2023-03-01T10:45:34;101839.28;;;18.83;24.25
77110;BME280;66062;52.464;16.922;2023-03-01T10:48:20;101837.81;;;18.03;25.29
77110;BME280;66062;52.464;16.922;2023-03-01T10:50:50;101831.63;;;18.44;24.59
77110;BME280;66062;52.464;16.922;2023-03-01T10:53:48;101836.88;;;18.46;25.32
77110;BME280;66062;52.464;16.922;2023-03-01T10:56:12;101830.31;;;16.90;28.02
77110;BME280;66062;52.464;16.922;2023-03-01T10:58:40;101822.44;;;17.60;27.04
77110;BME280;66062;52.464;16.922;2023-03-01T11:01:27;101822.47;;;14.60;30.71
77110;BME280;66062;52.464;16.922;2023-03-01T11:04:10;101818.25;;;17.30;26.66
77110;BME280;66062;52.464;16.922;2023-03-01T11:06:38;101807.03;;;18.55;25.14
77110;BME280;66062;52.464;16.922;2023-03-01T11:09:24;101810.72;;;17.16;27.23
77110;BME280;66062;52.464;16.922;2023-03-01T11:11:54;101816.84;;;16.63;29.37
77110;BME280;66062;52.464;16.922;2023-03-01T11:14:22;101817.09;;;17.68;26.51
77110;BME280;66062;52.464;16.922;2023-03-01T11:16:59;101808.13;;;18.11;25.89
77110;BME280;66062;52.464;16.922;2023-03-01T11:19:24;101809.97;;;17.84;26.19
77110;BME280;66062;52.464;16.922;2023-03-01T11:22:07;101799.50;;;16.93;27.62
77110;BME280;66062;52.464;16.922;2023-03-01T11:24:44;101800.59;;;16.36;28.58
77110;BME280;66062;52.464;16.922;2023-03-01T11:27:24;101795.28;;;17.26;27.17
77110;BME280;66062;52.464;16.922;2023-03-01T11:32:25;101798.22;;;16.70;27.95
77110;BME280;66062;52.464;16.922;2023-03-01T11:34:57;101805.72;;;16.39;29.04
77110;BME280;66062;52.464;16.922;2023-03-01T11:37:50;101802.91;;;16.95;27.95
77110;BME280;66062;52.464;16.922;2023-03-01T11:40:34;101804.34;;;16.62;28.39
77110;BME280;66062;52.464;16.922;2023-03-01T11:43:12;101791.88;;;16.88;27.82
77110;BME280;66062;52.464;16.922;2023-03-01T11:50:49;101785.00;;;16.02;30.30
77110;BME280;66062;52.464;16.922;2023-03-01T11:53:28;101783.13;;;16.77;28.85
77110;BME280;66062;52.464;16.922;2023-03-01T12:01:36;101777.88;;;15.55;31.46
77110;BME280;66062;52.464;16.922;2023-03-01T12:04:24;101778.66;;;16.31;29.37
77110;BME280;66062;52.464;16.922;2023-03-01T12:06:59;101779.56;;;15.56;30.33
77110;BME280;66062;52.464;16.922;2023-03-01T12:12:01;101771.25;;;16.05;30.13
77110;BME280;66062;52.464;16.922;2023-03-01T12:17:10;101760.03;;;16.92;29.25
77110;BME280;66062;52.464;16.922;2023-03-01T12:20:20;101758.81;;;17.83;27.74
77110;BME280;66062;52.464;16.922;2023-03-01T12:28:19;101728.97;;;17.23;28.65
77110;BME280;66062;52.464;16.922;2023-03-01T12:41:52;101731.34;;;16.46;29.55
77110;BME280;66062;52.464;16.922;2023-03-01T12:47:58;101731.13;;;14.69;32.69
77110;BME280;66062;52.464;16.922;2023-03-01T12:49:55;101732.03;;;16.20;30.96
77110;BME280;66062;52.464;16.922;2023-03-01T12:52:29;101721.78;;;16.06;31.21
77110;BME280;66062;52.464;16.922;2023-03-01T12:54:58;101714.41;;;17.34;28.69
77110;BME280;66062;52.464;16.922;2023-03-01T12:57:43;101725.81;;;17.28;29.13
77110;BME280;66062;52.464;16.922;2023-03-01T13:00:39;101716.84;;;17.45;28.62
77110;BME280;66062;52.464;16.922;2023-03-01T13:03:25;101720.19;;;18.24;27.38
77110;BME280;66062;52.464;16.922;2023-03-01T13:06:11;101730.25;;;14.69;32.34
77110;BME280;66062;52.464;16.922;2023-03-01T13:11:18;101715.47;;;15.88;31.11
77110;BME280;66062;52.464;16.922;2023-03-01T13:13:44;101706.94;;;16.30;30.64
77110;BME280;66062;52.464;16.922;2023-03-01T13:19:15;101700.50;;;16.58;29.82
77110;BME280;66062;52.464;16.922;2023-03-01T13:21:41;101693.41;;;17.45;28.65
77110;BME280;66062;52.464;16.922;2023-03-01T13:32:19;101672.38;;;16.43;30.15
77110;BME280;66062;52.464;16.922;2023-03-01T13:34:47;101684.78;;;16.08;30.78
77110;BME280;66062;52.464;16.922;2023-03-01T13:37:21;101674.88;;;16.26;30.61
77110;BME280;66062;52.464;16.922;2023-03-01T13:39:47;101671.56;;;17.13;29.39
77110;BME280;66062;52.464;16.922;2023-03-01T13:44:58;101672.44;;;16.78;29.34
77110;BME280;66062;52.464;16.922;2023-03-01T13:47:26;101667.56;;;16.99;29.19
77110;BME280;66062;52.464;16.922;2023-03-01T13:49:57;101666.63;;;17.26;29.29
77110;BME280;66062;52.464;16.922;2023-03-01T13:55:17;101672.91;;;15.45;30.97
77110;BME280;66062;52.464;16.922;2023-03-01T13:57:47;101677.50;;;16.18;30.23
77110;BME280;66062;52.464;16.922;2023-03-01T14:05:44;101675.34;;;15.58;31.76
77110;BME280;66062;52.464;16.922;2023-03-01T14:08:24;101670.81;;;15.49;31.51
77110;BME280;66062;52.464;16.922;2023-03-01T14:16:47;101661.00;;;14.82;32.73
77110;BME280;66062;52.464;16.922;2023-03-01T14:19:18;101666.19;;;14.64;33.31
77110;BME280;66062;52.464;16.922;2023-03-01T14:21:45;101657.97;;;14.37;34.16